createdAt,value
2022-10-26T00:00:51.182Z,12.49
2022-10-26T00:03:18.233Z,12.52
2022-10-26T00:05:44.958Z,12.52
2022-10-26T00:08:11.950Z,12.52
2022-10-26T00:10:39.083Z,12.48
2022-10-26T00:13:10.383Z,12.50
2022-10-26T00:15:40.807Z,12.45
2022-10-26T00:18:07.284Z,12.39
2022-10-26T00:20:33.868Z,12.36
2022-10-26T00:23:00.302Z,12.40
2022-10-26T00:25:27.130Z,12.45
2022-10-26T00:27:53.631Z,12.46
2022-10-26T00:30:20.148Z,12.46
2022-10-26T00:32:46.594Z,12.49
2022-10-26T00:35:22.878Z,12.52
2022-10-26T00:37:55.263Z,12.59
2022-10-26T00:40:22.209Z,12.60
2022-10-26T00:42:48.859Z,12.62
2022-10-26T00:45:15.498Z,12.63
2022-10-26T00:47:48.555Z,12.61
2022-10-26T00:50:24.988Z,12.63
2022-10-26T00:52:53.410Z,12.63
2022-10-26T00:55:23.959Z,12.66
2022-10-26T00:57:52.623Z,12.61
2022-10-26T01:00:19.408Z,12.59
2022-10-26T01:02:48.002Z,12.61
2022-10-26T01:05:16.348Z,12.57
2022-10-26T01:07:45.757Z,12.58
2022-10-26T01:10:14.190Z,12.54
2022-10-26T01:12:41.038Z,12.53
2022-10-26T01:15:08.506Z,12.46
2022-10-26T01:18:13.025Z,12.42
2022-10-26T01:20:46.614Z,12.31
2022-10-26T01:23:15.694Z,12.29
2022-10-26T01:26:09.793Z,12.25
2022-10-26T01:29:00.778Z,12.21
2022-10-26T01:31:39.272Z,12.17
2022-10-26T01:34:20.933Z,12.15
2022-10-26T01:36:57.004Z,12.02
2022-10-26T01:39:54.731Z,12.06
2022-10-26T01:42:23.334Z,12.02
2022-10-26T01:44:56.405Z,12.02
2022-10-26T01:47:24.047Z,11.96
2022-10-26T01:49:59.235Z,12.01
2022-10-26T01:52:25.896Z,12.02
2022-10-26T01:54:52.402Z,12.06
2022-10-26T01:57:21.610Z,12.05
2022-10-26T01:59:57.403Z,12.03
2022-10-26T02:02:29.714Z,12.02
2022-10-26T02:05:20.991Z,12.03
2022-10-26T02:08:04.980Z,12.06
2022-10-26T02:10:43.188Z,12.08
2022-10-26T02:13:21.715Z,12.07
2022-10-26T02:15:59.777Z,12.10
2022-10-26T02:18:41.055Z,12.15
2022-10-26T02:21:16.741Z,12.20
2022-10-26T02:23:46.591Z,12.26
2022-10-26T02:26:17.913Z,12.30
2022-10-26T02:28:49.989Z,12.38
2022-10-26T02:31:17.797Z,12.33
2022-10-26T02:36:26.675Z,12.42
2022-10-26T02:38:54.396Z,12.43
2022-10-26T02:41:23.135Z,12.43
2022-10-26T02:44:26.820Z,12.46
2022-10-26T02:46:54.548Z,12.47
2022-10-26T02:49:21.716Z,12.47
2022-10-26T02:51:51.134Z,12.50
2022-10-26T02:54:29.462Z,12.50
2022-10-26T02:57:01.731Z,12.52
2022-10-26T02:59:32.849Z,12.56
2022-10-26T03:02:00.251Z,12.59
2022-10-26T03:04:31.793Z,12.62
2022-10-26T03:06:58.593Z,12.66
2022-10-26T03:09:25.948Z,12.70
2022-10-26T03:11:53.246Z,12.74
2022-10-26T03:14:20.577Z,12.76
2022-10-26T03:16:47.144Z,12.80
2022-10-26T03:19:13.783Z,12.80
2022-10-26T03:21:42.326Z,12.80
2022-10-26T03:24:09.468Z,12.83
2022-10-26T03:26:35.975Z,12.82
2022-10-26T03:29:02.508Z,12.80
2022-10-26T03:31:28.978Z,12.83
2022-10-26T03:33:55.413Z,12.84
2022-10-26T03:36:21.936Z,12.85
2022-10-26T03:38:48.426Z,12.90
2022-10-26T03:41:14.933Z,12.88
2022-10-26T03:43:41.391Z,12.87
2022-10-26T03:46:07.844Z,12.89
2022-10-26T03:48:34.301Z,12.92
2022-10-26T03:51:00.803Z,12.94
2022-10-26T03:53:27.385Z,12.96
2022-10-26T03:55:53.837Z,13.01
2022-10-26T03:58:20.352Z,13.03
2022-10-26T04:00:47.801Z,13.05
2022-10-26T04:03:14.266Z,13.10
2022-10-26T04:05:40.769Z,13.09
2022-10-26T04:08:08.406Z,13.03
2022-10-26T04:10:35.163Z,13.05
2022-10-26T04:13:01.940Z,13.11
2022-10-26T04:15:29.231Z,13.06
2022-10-26T04:17:59.832Z,13.05
2022-10-26T04:20:27.845Z,13.00
2022-10-26T04:23:05.468Z,13.01
2022-10-26T04:25:33.734Z,12.99
2022-10-26T04:28:02.162Z,13.02
2022-10-26T04:30:29.052Z,12.99
2022-10-26T04:32:55.699Z,12.98
2022-10-26T04:35:22.206Z,12.95
2022-10-26T04:37:48.755Z,12.91
2022-10-26T04:40:15.423Z,12.93
2022-10-26T04:42:46.614Z,12.91
2022-10-26T04:45:14.906Z,12.89
2022-10-26T04:47:42.240Z,12.86
2022-10-26T04:50:10.709Z,12.86
2022-10-26T04:52:37.547Z,12.82
2022-10-26T04:55:07.690Z,12.84
2022-10-26T04:57:35.525Z,12.82
2022-10-26T05:00:04.076Z,12.89
2022-10-26T05:02:30.750Z,12.92
2022-10-26T05:04:57.388Z,12.92
2022-10-26T05:07:23.934Z,12.94
2022-10-26T05:09:50.533Z,12.99
2022-10-26T05:12:17.078Z,13.00
2022-10-26T05:14:43.532Z,13.03
2022-10-26T05:17:10.080Z,13.05
2022-10-26T05:19:36.679Z,13.05
2022-10-26T05:22:03.212Z,13.09
2022-10-26T05:24:29.681Z,13.13
2022-10-26T05:26:56.313Z,13.15
2022-10-26T05:29:22.795Z,13.16
2022-10-26T05:31:49.249Z,13.15
2022-10-26T05:34:15.729Z,13.14
2022-10-26T05:36:42.227Z,13.15
2022-10-26T05:39:08.655Z,13.08
2022-10-26T05:41:35.279Z,13.02
2022-10-26T05:44:01.741Z,12.91
2022-10-26T05:46:28.223Z,12.87
2022-10-26T05:48:54.678Z,12.84
2022-10-26T05:51:21.130Z,12.82
2022-10-26T05:53:47.618Z,12.78
2022-10-26T05:56:38.207Z,12.73
2022-10-26T05:59:10.930Z,12.64
2022-10-26T06:01:37.415Z,12.66
2022-10-26T06:04:38.678Z,12.57
2022-10-26T06:07:12.625Z,12.51
2022-10-26T06:09:40.695Z,12.42
2022-10-26T06:12:08.547Z,12.37
2022-10-26T06:14:36.019Z,12.41
2022-10-26T06:17:24.150Z,12.43
2022-10-26T06:20:22.229Z,12.48
2022-10-26T06:22:55.327Z,12.60
2022-10-26T06:25:34.322Z,12.64
2022-10-26T06:28:48.618Z,12.69
2022-10-26T06:31:17.650Z,12.72
2022-10-26T06:33:44.499Z,12.78
2022-10-26T06:36:27.065Z,12.89
2022-10-26T06:39:02.302Z,12.98
2022-10-26T06:41:32.060Z,12.99
2022-10-26T06:43:58.883Z,13.03
2022-10-26T06:46:30.732Z,13.05
2022-10-26T06:49:29.146Z,13.07
2022-10-26T06:51:58.479Z,13.15
2022-10-26T06:54:49.494Z,13.17
2022-10-26T06:57:21.240Z,13.22
2022-10-26T07:00:00.833Z,13.35
2022-10-26T07:02:28.012Z,13.38
2022-10-26T07:04:54.661Z,13.39
2022-10-26T07:07:23.893Z,13.45
2022-10-26T07:09:50.994Z,13.54
2022-10-26T07:12:17.752Z,13.58
2022-10-26T07:14:44.553Z,13.63
2022-10-26T07:17:11.198Z,13.71
2022-10-26T07:19:37.735Z,13.75
2022-10-26T07:22:04.230Z,13.85
2022-10-26T07:24:33.627Z,14.00
2022-10-26T07:27:00.264Z,14.12
2022-10-26T07:29:28.212Z,14.20
2022-10-26T07:34:26.100Z,14.38
2022-10-26T07:36:52.827Z,14.35
2022-10-26T07:39:19.284Z,14.40
2022-10-26T07:41:46.399Z,14.51
2022-10-26T07:44:12.896Z,14.56
2022-10-26T07:46:39.518Z,14.61
2022-10-26T07:49:05.997Z,14.74
2022-10-26T07:51:32.440Z,14.86
2022-10-26T07:53:58.973Z,14.97
2022-10-26T07:56:25.566Z,15.02
2022-10-26T07:58:54.318Z,15.07
2022-10-26T08:01:21.510Z,15.12
2022-10-26T08:03:48.225Z,15.16
2022-10-26T08:06:14.811Z,15.28
2022-10-26T08:08:46.421Z,15.36
2022-10-26T08:11:15.481Z,15.47
2022-10-26T08:13:42.731Z,15.54
2022-10-26T08:16:09.744Z,15.53
2022-10-26T08:18:36.561Z,15.59
2022-10-26T08:21:11.531Z,15.53
2022-10-26T08:23:38.540Z,15.61
2022-10-26T08:26:05.432Z,15.61
2022-10-26T08:28:31.930Z,15.70
2022-10-26T08:30:59.926Z,15.72
2022-10-26T08:33:26.472Z,15.73
2022-10-26T08:36:00.760Z,15.77
2022-10-26T08:38:27.856Z,15.95
2022-10-26T08:40:56.876Z,16.12
2022-10-26T08:44:02.549Z,16.25
2022-10-26T08:46:46.894Z,16.39
2022-10-26T08:49:22.656Z,16.42
2022-10-26T08:51:53.071Z,16.42
2022-10-26T08:54:41.878Z,16.41
2022-10-26T08:57:44.300Z,16.44
2022-10-26T09:00:38.042Z,16.42
2022-10-26T09:03:15.086Z,16.37
2022-10-26T09:06:13.100Z,16.43
2022-10-26T09:08:55.080Z,16.46
2022-10-26T09:11:35.833Z,16.56
2022-10-26T09:14:14.474Z,16.65
2022-10-26T09:17:06.599Z,16.77
2022-10-26T09:19:43.958Z,16.89
2022-10-26T09:22:25.916Z,17.07
2022-10-26T09:24:55.588Z,17.30
2022-10-26T09:27:28.540Z,17.55
2022-10-26T09:30:01.228Z,17.65
2022-10-26T09:32:45.180Z,17.83
2022-10-26T09:35:19.363Z,17.92
2022-10-26T09:37:56.825Z,18.09
2022-10-26T09:40:31.591Z,18.18
2022-10-26T09:43:04.886Z,18.28
2022-10-26T09:45:39.198Z,18.34
2022-10-26T09:48:17.186Z,18.70
2022-10-26T09:50:48.256Z,18.87
2022-10-26T09:53:14.959Z,19.00
2022-10-26T09:55:49.526Z,19.35
2022-10-26T09:58:29.782Z,19.63
2022-10-26T10:00:56.929Z,20.06
2022-10-26T10:03:28.652Z,20.30
2022-10-26T10:06:16.225Z,20.61
2022-10-26T10:08:43.215Z,20.67
2022-10-26T10:11:12.672Z,20.78
2022-10-26T10:13:43.035Z,20.90
2022-10-26T10:16:23.866Z,21.03
2022-10-26T10:18:58.279Z,20.98
2022-10-26T10:21:49.178Z,20.97
2022-10-26T10:24:27.778Z,20.75
2022-10-26T10:27:17.867Z,20.73
2022-10-26T10:29:53.317Z,20.42
2022-10-26T10:32:27.063Z,20.40
2022-10-26T10:34:58.157Z,20.41
2022-10-26T10:37:27.205Z,20.68
2022-10-26T10:39:59.520Z,21.06
2022-10-26T10:42:33.585Z,21.11
2022-10-26T10:45:01.690Z,20.84
2022-10-26T10:47:36.692Z,20.89
2022-10-26T10:50:17.567Z,21.06
2022-10-26T10:52:44.660Z,20.99
2022-10-26T10:55:19.796Z,21.34
2022-10-26T10:58:13.481Z,21.54
2022-10-26T11:00:43.833Z,21.62
2022-10-26T11:03:36.359Z,21.49
2022-10-26T11:06:13.961Z,21.73
2022-10-26T11:08:51.872Z,21.61
2022-10-26T11:11:24.470Z,21.75
2022-10-26T11:13:57.796Z,22.00
2022-10-26T11:16:30.374Z,22.17
2022-10-26T11:19:06.188Z,22.27
2022-10-26T11:21:37.907Z,22.36
2022-10-26T11:24:16.173Z,22.31
2022-10-26T11:27:01.975Z,22.14
2022-10-26T11:29:48.398Z,22.00
2022-10-26T11:32:34.849Z,22.13
2022-10-26T11:35:13.351Z,22.06
2022-10-26T11:37:52.195Z,21.98
2022-10-26T11:40:34.872Z,21.89
2022-10-26T11:43:16.456Z,22.19
2022-10-26T11:45:45.948Z,22.36
2022-10-26T11:48:36.480Z,22.65
2022-10-26T11:51:04.174Z,22.49
2022-10-26T11:53:38.783Z,22.67
2022-10-26T11:56:16.980Z,22.61
2022-10-26T11:58:45.604Z,22.57
2022-10-26T12:01:15.804Z,22.49
2022-10-26T12:03:47.613Z,22.68
2022-10-26T12:06:17.434Z,22.69
2022-10-26T12:08:55.708Z,22.51
2022-10-26T12:11:36.016Z,22.74
2022-10-26T12:14:19.865Z,22.64
2022-10-26T12:17:22.808Z,22.76
2022-10-26T12:20:07.443Z,22.96
2022-10-26T12:22:39.857Z,22.79
2022-10-26T12:25:10.054Z,22.74
2022-10-26T12:27:39.117Z,22.75
2022-10-26T12:30:14.848Z,22.78
2022-10-26T12:32:43.724Z,22.81
2022-10-26T12:35:39.381Z,22.97
2022-10-26T12:38:37.993Z,23.34
2022-10-26T12:41:04.426Z,23.22
2022-10-26T12:43:30.931Z,23.18
2022-10-26T12:46:12.708Z,23.14
2022-10-26T12:48:46.413Z,22.91
2022-10-26T12:51:24.851Z,22.51
2022-10-26T12:53:57.492Z,22.24
2022-10-26T12:56:47.834Z,21.63
2022-10-26T12:59:33.734Z,21.57
2022-10-26T13:02:23.051Z,21.32
2022-10-26T13:05:01.678Z,21.72
2022-10-26T13:07:36.309Z,21.88
2022-10-26T13:10:19.091Z,22.01
2022-10-26T13:12:59.073Z,22.31
2022-10-26T13:15:39.074Z,21.74
2022-10-26T13:18:18.259Z,21.70
2022-10-26T13:21:03.302Z,21.35
2022-10-26T13:23:33.104Z,21.22
2022-10-26T13:26:14.931Z,20.67
2022-10-26T13:28:41.364Z,20.40
2022-10-26T13:31:13.743Z,20.27
2022-10-26T13:33:43.785Z,20.15
2022-10-26T13:36:26.577Z,20.15
2022-10-26T13:38:54.345Z,20.14
2022-10-26T13:41:39.550Z,20.13
2022-10-26T13:44:16.631Z,20.15
2022-10-26T13:46:46.687Z,20.50
2022-10-26T13:49:23.466Z,20.39
2022-10-26T13:51:52.323Z,20.22
2022-10-26T13:54:46.115Z,20.04
2022-10-26T13:57:34.766Z,19.89
2022-10-26T14:00:16.706Z,19.78
2022-10-26T14:02:46.189Z,20.24
2022-10-26T14:05:17.665Z,20.34
2022-10-26T14:07:59.198Z,20.37
2022-10-26T14:10:32.913Z,20.14
2022-10-26T14:13:00.749Z,19.91
2022-10-26T14:15:31.610Z,19.76
2022-10-26T14:18:01.172Z,19.65
2022-10-26T14:20:29.984Z,19.53
2022-10-26T14:22:56.951Z,19.47
2022-10-26T14:25:42.419Z,19.41
2022-10-26T14:28:32.511Z,19.35
2022-10-26T14:31:15.173Z,19.31
2022-10-26T14:33:44.549Z,19.34
2022-10-26T14:36:11.871Z,19.35
2022-10-26T14:38:44.873Z,19.35
2022-10-26T14:41:15.732Z,19.33
2022-10-26T14:43:43.914Z,19.32
2022-10-26T14:46:16.510Z,19.38
2022-10-26T14:48:53.453Z,19.44
2022-10-26T14:51:25.601Z,19.48
2022-10-26T14:53:54.436Z,19.45
2022-10-26T14:56:28.878Z,19.48
2022-10-26T14:58:56.399Z,19.61
2022-10-26T15:01:28.296Z,19.64
2022-10-26T15:04:01.402Z,19.67
2022-10-26T15:06:27.816Z,19.60
2022-10-26T15:08:57.410Z,19.45
2022-10-26T15:11:24.695Z,19.37
2022-10-26T15:13:51.307Z,19.33
2022-10-26T15:16:33.144Z,19.26
2022-10-26T15:19:11.021Z,19.18
2022-10-26T15:21:42.597Z,19.01
2022-10-26T15:24:21.058Z,18.90
2022-10-26T15:26:47.963Z,18.74
2022-10-26T15:29:37.374Z,18.61
2022-10-26T15:32:17.552Z,18.49
2022-10-26T15:34:49.429Z,18.43
2022-10-26T15:37:16.006Z,18.38
2022-10-26T15:39:42.709Z,18.32
2022-10-26T15:42:13.744Z,18.25
2022-10-26T15:44:40.292Z,18.14
2022-10-26T15:47:18.213Z,18.00
2022-10-26T15:49:44.718Z,17.91
2022-10-26T15:52:11.177Z,17.81
2022-10-26T15:54:37.703Z,17.72
2022-10-26T15:59:31.175Z,17.75
2022-10-26T16:01:57.668Z,17.74
2022-10-26T16:04:24.353Z,17.68
2022-10-26T16:06:50.803Z,17.61
2022-10-26T16:09:18.299Z,17.48
2022-10-26T16:11:45.329Z,17.32
2022-10-26T16:14:12.868Z,17.18
2022-10-26T16:16:39.979Z,16.99
2022-10-26T16:19:29.194Z,16.86
2022-10-26T16:21:52.903Z,16.75
2022-10-26T16:24:19.670Z,16.67
2022-10-26T16:26:46.404Z,16.58
2022-10-26T16:29:13.184Z,16.53
2022-10-26T16:31:39.684Z,16.59
2022-10-26T16:34:06.166Z,16.76
2022-10-26T16:36:35.222Z,16.87
2022-10-26T16:41:29.439Z,17.12
2022-10-26T16:43:56.108Z,17.23
2022-10-26T16:46:22.722Z,17.27
2022-10-26T16:48:50.334Z,17.28
2022-10-26T16:51:24.807Z,17.26
2022-10-26T16:53:53.832Z,17.19
2022-10-26T16:56:23.213Z,17.25
2022-10-26T16:58:49.772Z,17.27
2022-10-26T17:01:18.413Z,17.26
2022-10-26T17:03:46.073Z,17.16
2022-10-26T17:06:12.929Z,17.02
2022-10-26T17:08:39.796Z,16.99
2022-10-26T17:11:12.654Z,16.99
2022-10-26T17:13:40.725Z,17.04
2022-10-26T17:16:19.161Z,17.08
2022-10-26T17:18:47.358Z,17.11
2022-10-26T17:21:15.698Z,17.15
2022-10-26T17:23:42.193Z,17.23
2022-10-26T17:26:10.751Z,17.25
2022-10-26T17:28:37.878Z,17.26
2022-10-26T17:31:05.652Z,17.20
2022-10-26T17:33:34.566Z,17.10
2022-10-26T17:36:02.039Z,17.09
2022-10-26T17:38:33.210Z,17.02
2022-10-26T17:41:02.037Z,17.01
2022-10-26T17:43:33.175Z,16.91
2022-10-26T17:46:05.618Z,16.91
2022-10-26T17:48:32.706Z,16.83
2022-10-26T17:51:04.366Z,16.76
2022-10-26T17:53:31.718Z,16.69
2022-10-26T17:56:09.850Z,16.68
2022-10-26T17:58:37.064Z,16.69
2022-10-26T18:01:08.848Z,16.75
2022-10-26T18:03:36.189Z,16.74
2022-10-26T18:06:03.741Z,16.67
2022-10-26T18:08:31.782Z,16.63
2022-10-26T18:10:59.112Z,16.59
2022-10-26T18:13:31.447Z,16.57
2022-10-26T18:16:14.426Z,16.56
2022-10-26T18:18:46.357Z,16.56
2022-10-26T18:21:14.878Z,16.62
2022-10-26T18:23:41.357Z,16.69
2022-10-26T18:26:16.370Z,16.75
2022-10-26T18:28:42.987Z,16.77
2022-10-26T18:31:11.756Z,16.78
2022-10-26T18:33:38.816Z,16.72
2022-10-26T18:36:08.098Z,16.68
2022-10-26T18:38:35.172Z,16.56
2022-10-26T18:41:02.515Z,16.47
2022-10-26T18:43:29.575Z,16.33
2022-10-26T18:46:04.465Z,16.27
2022-10-26T18:48:31.047Z,16.12
2022-10-26T18:51:01.633Z,16.10
2022-10-26T18:53:28.194Z,16.16
2022-10-26T18:56:00.678Z,16.23
2022-10-26T18:58:38.691Z,16.35
2022-10-26T19:01:10.716Z,16.44
2022-10-26T19:03:38.191Z,16.56
2022-10-26T19:06:13.044Z,16.64
2022-10-26T19:08:40.986Z,16.66
2022-10-26T19:11:10.995Z,16.64
2022-10-26T19:13:37.537Z,16.67
2022-10-26T19:16:17.221Z,16.69
2022-10-26T19:18:56.273Z,16.70
2022-10-26T19:21:24.388Z,16.75
2022-10-26T19:23:53.281Z,16.75
2022-10-26T19:26:23.252Z,16.72
2022-10-26T19:29:01.784Z,16.77
2022-10-26T19:31:32.587Z,16.91
2022-10-26T19:34:00.412Z,17.01
2022-10-26T19:36:27.353Z,17.15
2022-10-26T19:38:55.258Z,17.15
2022-10-26T19:41:23.535Z,17.06
2022-10-26T19:43:50.942Z,16.88
2022-10-26T19:46:20.562Z,16.78
2022-10-26T19:48:51.853Z,16.69
2022-10-26T19:51:18.976Z,16.58
2022-10-26T19:53:46.026Z,16.55
2022-10-26T19:56:13.572Z,16.52
2022-10-26T19:58:44.907Z,16.50
2022-10-26T20:01:13.423Z,16.47
2022-10-26T20:03:40.094Z,16.43
2022-10-26T20:06:12.702Z,16.46
2022-10-26T20:08:41.085Z,16.52
2022-10-26T20:11:11.677Z,16.50
2022-10-26T20:13:41.402Z,16.48
2022-10-26T20:16:08.333Z,16.47
2022-10-26T20:18:35.520Z,16.49
2022-10-26T20:21:06.213Z,16.50
2022-10-26T20:23:32.663Z,16.48
2022-10-26T20:26:00.475Z,16.49
2022-10-26T20:28:26.985Z,16.49
2022-10-26T20:30:53.489Z,16.46
2022-10-26T20:33:20.302Z,16.43
2022-10-26T20:35:46.861Z,16.44
2022-10-26T20:38:21.349Z,16.46
2022-10-26T20:40:54.697Z,16.48
2022-10-26T20:43:21.499Z,16.45
2022-10-26T20:45:48.560Z,16.47
2022-10-26T20:48:15.570Z,16.46
2022-10-26T20:50:48.533Z,16.48
2022-10-26T20:53:35.063Z,16.48
2022-10-26T20:56:05.981Z,16.42
2022-10-26T20:58:43.630Z,16.38
2022-10-26T21:01:20.994Z,16.32
2022-10-26T21:03:47.572Z,16.26
2022-10-26T21:06:14.062Z,16.13
2022-10-26T21:08:40.752Z,15.96
2022-10-26T21:11:07.380Z,15.73
2022-10-26T21:13:33.862Z,15.48
2022-10-26T21:16:04.122Z,15.40
2022-10-26T21:18:32.251Z,15.31
2022-10-26T21:21:00.098Z,15.21
2022-10-26T21:23:30.916Z,15.13
2022-10-26T21:25:57.805Z,15.08
2022-10-26T21:28:24.657Z,15.10
2022-10-26T21:30:51.178Z,15.09
2022-10-26T21:33:20.030Z,15.09
2022-10-26T21:35:54.306Z,15.01
2022-10-26T21:38:20.951Z,14.99
2022-10-26T21:40:47.374Z,14.92
2022-10-26T21:43:13.827Z,14.87
2022-10-26T21:45:40.310Z,14.71
2022-10-26T21:48:06.751Z,14.78
2022-10-26T21:50:33.271Z,14.69
2022-10-26T21:52:59.692Z,14.74
2022-10-26T21:55:26.149Z,14.68
2022-10-26T21:57:53.887Z,14.65
2022-10-26T22:00:20.391Z,14.61
2022-10-26T22:02:46.826Z,14.52
2022-10-26T22:05:13.287Z,14.48
2022-10-26T22:07:39.859Z,14.51
2022-10-26T22:10:13.912Z,14.45
2022-10-26T22:12:40.448Z,14.40
2022-10-26T22:15:07.694Z,14.34
2022-10-26T22:17:37.939Z,14.30
2022-10-26T22:20:05.456Z,14.27
2022-10-26T22:22:31.931Z,14.28
2022-10-26T22:24:59.445Z,14.31
2022-10-26T22:27:25.934Z,14.38
2022-10-26T22:29:52.352Z,14.40
2022-10-26T22:32:19.046Z,14.43
2022-10-26T22:34:45.483Z,14.47
2022-10-26T22:37:12.082Z,14.46
2022-10-26T22:39:38.602Z,14.41
2022-10-26T22:42:05.194Z,14.42
2022-10-26T22:44:31.650Z,14.47
2022-10-26T22:46:59.576Z,14.53
2022-10-26T22:49:26.074Z,14.59
2022-10-26T22:51:52.518Z,14.69
2022-10-26T22:54:19.788Z,14.70
2022-10-26T22:56:46.272Z,14.68
2022-10-26T22:59:12.726Z,14.64
2022-10-26T23:01:41.757Z,14.57
2022-10-26T23:04:12.615Z,14.53
2022-10-26T23:06:39.500Z,14.59
2022-10-26T23:09:06.426Z,14.56
2022-10-26T23:11:33.211Z,14.66
2022-10-26T23:14:01.763Z,14.73
2022-10-26T23:16:29.686Z,14.83
2022-10-26T23:18:56.399Z,14.89
2022-10-26T23:23:56.930Z,14.95
2022-10-26T23:26:23.439Z,14.89
2022-10-26T23:28:50.426Z,14.88
2022-10-26T23:31:22.336Z,14.82
2022-10-26T23:33:52.517Z,14.79
2022-10-26T23:36:19.564Z,14.75
2022-10-26T23:38:46.586Z,14.74
2022-10-26T23:41:13.309Z,14.60
2022-10-26T23:43:40.467Z,14.71
2022-10-26T23:46:07.264Z,14.70
2022-10-26T23:48:33.838Z,14.69
2022-10-26T23:51:00.302Z,14.70
2022-10-26T23:53:26.856Z,14.68
2022-10-26T23:55:53.361Z,14.61
2022-10-26T23:58:20.112Z,14.53
